Time;durP1;ratioP1;P1;durP2;ratioP2;P2;SDS_P1;SDS_P2;PMS_P1;PMS_P2;Temp;Humidity;BMP_temperature;BMP_pressure;BME280_temperature;BME280_humidity;BME280_pressure;Samples;Min_cycle;Max_cycle;Signal;HPM_P1;HPM_P2
2023/09/10 00:00:35;;;;;;;13.25;11.85;;;;;;;17.56;100.00;101550.19;4997169;28;20197;-49
2023/09/10 00:03:00;;;;;;;13.40;12.20;;;;;;;17.59;100.00;101541.00;5003093;28;20193;-49
2023/09/10 00:05:26;;;;;;;15.90;14.50;;;;;;;17.62;100.00;101546.25;4996871;28;20192;-50
2023/09/10 00:07:52;;;;;;;16.75;14.85;;;;;;;17.54;100.00;101543.97;4999563;28;20213;-49
2023/09/10 00:10:18;;;;;;;16.20;14.55;;;;;;;17.50;100.00;101545.97;4996645;28;20207;-49
2023/09/10 00:12:44;;;;;;;14.70;13.40;;;;;;;17.46;100.00;101544.38;5002998;28;20181;-51
2023/09/10 00:15:09;;;;;;;13.98;12.57;;;;;;;17.50;100.00;101545.97;5001004;28;20260;-49
2023/09/10 00:17:35;;;;;;;15.07;13.70;;;;;;;17.55;100.00;101543.00;4988790;28;21042;-51
2023/09/10 00:20:01;;;;;;;15.55;14.05;;;;;;;17.56;100.00;101547.47;5000990;28;20240;-50
2023/09/10 00:22:26;;;;;;;16.42;14.82;;;;;;;17.58;100.00;101542.84;4996643;28;20173;-49
2023/09/10 00:24:52;;;;;;;17.27;15.57;;;;;;;17.66;100.00;101548.69;5000477;28;20223;-49
2023/09/10 00:27:17;;;;;;;17.85;16.15;;;;;;;17.59;100.00;101547.28;5001483;28;20197;-50
2023/09/10 00:29:43;;;;;;;15.98;14.57;;;;;;;17.68;100.00;101548.59;4999474;28;20701;-49
2023/09/10 00:32:08;;;;;;;17.20;15.52;;;;;;;17.74;100.00;101544.69;4995019;28;20714;-52
2023/09/10 00:34:34;;;;;;;16.73;15.32;;;;;;;17.69;100.00;101540.41;4999356;28;20318;-49
2023/09/10 00:37:01;;;;;;;18.52;16.75;;;;;;;17.63;100.00;101538.03;4989362;28;20553;-49
2023/09/10 00:39:26;;;;;;;15.18;13.77;;;;;;;17.71;100.00;101548.44;4997883;28;20183;-50
2023/09/10 00:41:54;;;;;;;16.88;15.32;;;;;;;17.69;100.00;101551.25;4997741;28;20208;-49
2023/09/10 00:44:23;;;;;;;20.75;18.88;;;;;;;17.64;100.00;101547.03;4999961;28;20203;-48
2023/09/10 00:46:50;;;;;;;17.48;15.88;;;;;;;17.68;100.00;101538.63;5000547;28;20185;-51
2023/09/10 00:49:16;;;;;;;22.17;19.98;;;;;;;17.59;100.00;101549.13;4994069;28;20971;-51
2023/09/10 00:51:42;;;;;;;19.42;17.70;;;;;;;17.59;100.00;101541.88;4988677;28;20247;-48
2023/09/10 00:54:08;;;;;;;18.77;16.88;;;;;;;17.65;100.00;101538.81;4998315;28;20193;-50
2023/09/10 00:56:33;;;;;;;21.55;19.60;;;;;;;17.55;100.00;101543.00;4985627;28;20182;-48
2023/09/10 00:58:59;;;;;;;22.27;20.05;;;;;;;17.53;100.00;101539.50;4981302;28;20228;-49
2023/09/10 01:01:26;;;;;;;23.95;21.85;;;;;;;17.54;100.00;101533.13;4998423;28;20257;-48
2023/09/10 01:03:51;;;;;;;24.83;22.42;;;;;;;17.54;100.00;101532.28;4988446;28;20193;-48
2023/09/10 01:06:18;;;;;;;20.70;18.73;;;;;;;17.57;100.00;101543.78;4990616;28;20177;-48
2023/09/10 01:08:46;;;;;;;20.98;19.13;;;;;;;17.58;100.00;101533.81;4996491;28;20207;-46
2023/09/10 01:11:30;;;;;;;18.77;17.00;;;;;;;17.57;100.00;101532.94;4998962;28;20274;-47
2023/09/10 01:13:59;;;;;;;22.15;20.05;;;;;;;17.56;100.00;101530.31;4997151;28;20904;-49
2023/09/10 01:16:37;;;;;;;23.35;21.08;;;;;;;17.56;100.00;101530.31;4997926;28;20661;-48
2023/09/10 01:19:33;;;;;;;23.00;20.90;;;;;;;17.54;100.00;101533.13;4989400;28;20181;-48
2023/09/10 01:22:12;;;;;;;24.58;22.27;;;;;;;17.34;100.00;101534.25;4995508;28;20223;-45
2023/09/10 01:24:38;;;;;;;27.60;24.95;;;;;;;17.20;100.00;101526.88;4997899;28;20183;-43
2023/09/10 01:27:04;;;;;;;26.83;24.27;;;;;;;17.10;100.00;101541.91;4997194;28;20189;-43
2023/09/10 01:29:31;;;;;;;24.23;21.92;;;;;;;17.16;100.00;101532.53;4995481;28;20295;-42
2023/09/10 01:32:00;;;;;;;26.17;23.58;;;;;;;17.19;100.00;101530.56;4986708;28;20672;-45
2023/09/10 01:34:30;;;;;;;25.88;23.63;;;;;;;17.22;100.00;101524.09;4998569;28;20209;-44
2023/09/10 01:37:18;;;;;;;25.20;22.90;;;;;;;17.24;100.00;101533.88;4994713;28;20216;-43
2023/09/10 01:39:48;;;;;;;25.65;23.10;;;;;;;17.25;100.00;101530.22;4998887;28;20511;-45
2023/09/10 01:42:15;;;;;;;25.98;23.55;;;;;;;17.24;100.00;101527.59;5000197;28;20291;-45
2023/09/10 01:44:41;;;;;;;28.88;26.20;;;;;;;17.21;100.00;101542.19;4984030;28;20535;-43
2023/09/10 01:47:07;;;;;;;26.92;24.30;;;;;;;17.12;100.00;101534.56;4998530;28;20187;-45
2023/09/10 01:49:33;;;;;;;26.35;23.65;;;;;;;17.10;100.00;101539.19;4999316;28;20787;-43
2023/09/10 01:51:58;;;;;;;24.80;22.40;;;;;;;17.10;100.00;101541.91;4981259;28;20201;-44
2023/09/10 01:54:24;;;;;;;26.60;24.20;;;;;;;17.08;100.00;101531.13;4997837;28;20180;-42
2023/09/10 01:56:49;;;;;;;24.60;22.45;;;;;;;17.12;100.00;101528.25;4987279;28;20199;-44
2023/09/10 01:59:15;;;;;;;30.10;27.15;;;;;;;16.95;100.00;101532.75;4982697;28;20510;-44
2023/09/10 02:01:40;;;;;;;26.98;24.48;;;;;;;16.92;100.00;101538.31;4987166;28;20190;-43
2023/09/10 02:04:06;;;;;;;29.67;27.05;;;;;;;16.91;100.00;101528.47;5000779;28;20620;-44
2023/09/10 02:06:31;;;;;;;25.95;23.55;;;;;;;16.97;100.00;101538.09;4983574;28;20191;-43
2023/09/10 02:08:57;;;;;;;28.98;26.25;;;;;;;16.94;100.00;101530.13;4987544;28;20211;-43
2023/09/10 02:11:22;;;;;;;27.35;24.85;;;;;;;16.85;100.00;101537.78;4988569;28;20204;-45
2023/09/10 02:13:48;;;;;;;29.23;26.35;;;;;;;16.78;100.00;101538.16;5001401;28;20251;-45
2023/09/10 02:16:13;;;;;;;27.80;25.15;;;;;;;16.76;100.00;101540.94;4987599;28;20180;-43
2023/09/10 02:18:39;;;;;;;28.48;25.77;;;;;;;16.76;100.00;101546.34;4996329;28;20177;-43
2023/09/10 02:21:09;;;;;;;29.70;26.88;;;;;;;16.75;100.00;101544.63;4998821;28;20605;-45
2023/09/10 02:23:35;;;;;;;46.13;41.40;;;;;;;16.78;100.00;101544.44;4997311;28;20177;-43
2023/09/10 02:26:01;;;;;;;47.05;42.13;;;;;;;16.91;100.00;101541.13;4998505;28;20236;-45
2023/09/10 02:28:27;;;;;;;53.70;48.05;;;;;;;17.02;100.00;101546.84;4993177;28;20194;-44
2023/09/10 02:30:53;;;;;;;57.38;51.22;;;;;;;17.07;100.00;101544.75;4984622;28;20221;-44
2023/09/10 02:33:19;;;;;;;70.22;62.00;;;;;;;17.20;100.00;101551.25;4994849;28;20189;-43
2023/09/10 02:35:44;;;;;;;77.38;66.22;;;;;;;17.20;100.00;101542.25;4994043;28;20184;-44
2023/09/10 02:38:10;;;;;;;107.32;84.72;;;;;;;17.21;100.00;101544.88;4985825;28;20509;-44
2023/09/10 02:40:35;;;;;;;109.40;88.38;;;;;;;17.21;100.00;101550.31;4997496;28;20200;-44
2023/09/10 02:43:01;;;;;;;131.20;90.78;;;;;;;17.21;100.00;101558.44;4992404;28;20273;-45
2023/09/10 02:45:26;;;;;;;104.63;81.47;;;;;;;17.21;100.00;101569.25;4999121;28;20255;-44
2023/09/10 02:47:52;;;;;;;102.85;81.60;;;;;;;17.23;100.00;101561.94;4996751;28;20679;-43
2023/09/10 02:50:18;;;;;;;90.18;72.90;;;;;;;17.31;100.00;101564.19;4985246;28;20252;-43
2023/09/10 02:52:43;;;;;;;95.95;78.07;;;;;;;17.28;100.00;101562.53;4988570;28;20264;-43
2023/09/10 02:55:09;;;;;;;125.93;80.15;;;;;;;17.27;100.00;101568.03;4999870;28;20188;-43
2023/09/10 02:57:34;;;;;;;127.25;82.78;;;;;;;17.21;100.00;101569.25;4998301;28;20667;-44
2023/09/10 03:00:00;;;;;;;159.43;82.32;;;;;;;17.00;100.00;101573.13;4987186;28;20227;-44
2023/09/10 03:02:25;;;;;;;99.47;78.45;;;;;;;16.98;100.00;101575.03;4988775;28;20177;-41
2023/09/10 03:04:51;;;;;;;121.43;79.22;;;;;;;16.89;100.00;101590.78;5001216;28;20710;-44
2023/09/10 03:07:16;;;;;;;110.88;73.75;;;;;;;16.99;100.00;101595.72;4984730;28;20529;-44
2023/09/10 03:09:42;;;;;;;98.22;71.57;;;;;;;16.85;100.00;101604.56;4981136;28;20221;-45
2023/09/10 03:12:28;;;;;;;109.68;65.63;;;;;;;16.75;100.00;101603.25;4999207;28;20209;-45
2023/09/10 03:14:55;;;;;;;84.93;63.53;;;;;;;16.68;100.00;101611.72;4990330;28;20173;-44
2023/09/10 03:17:22;;;;;;;101.60;65.28;;;;;;;16.64;100.00;101615.53;4982351;28;20602;-44
2023/09/10 03:19:48;;;;;;;62.22;52.13;;;;;;;16.74;100.00;101615.91;4980117;28;20227;-43
2023/09/10 03:22:15;;;;;;;88.05;56.58;;;;;;;16.71;100.00;101623.34;5000271;28;20368;-45
2023/09/10 03:24:41;;;;;;;91.03;58.10;;;;;;;16.81;100.00;101617.38;4998965;28;20783;-43
2023/09/10 03:27:06;;;;;;;84.45;55.30;;;;;;;16.75;100.00;101616.78;4995849;28;20191;-40
2023/09/10 03:29:33;;;;;;;113.43;55.78;;;;;;;16.80;100.00;101615.63;5001943;28;20523;-39
2023/09/10 03:31:59;;;;;;;88.35;54.20;;;;;;;16.80;100.00;101617.47;4979528;28;20209;-40
2023/09/10 03:34:24;;;;;;;91.30;56.05;;;;;;;16.83;100.00;101618.16;5000549;28;20177;-40
2023/09/10 03:36:50;;;;;;;77.93;54.92;;;;;;;16.91;100.00;101622.34;4989093;28;20178;-41
2023/09/10 03:39:15;;;;;;;96.13;60.13;;;;;;;16.81;100.00;101617.38;4990664;28;20542;-41
2023/09/10 03:41:41;;;;;;;109.45;61.72;;;;;;;16.84;100.00;101619.06;5001293;28;20247;-40
2023/09/10 03:44:06;;;;;;;128.80;67.93;;;;;;;16.75;100.00;101617.69;4989109;28;20187;-41
2023/09/10 03:46:32;;;;;;;91.15;62.22;;;;;;;16.88;100.00;101620.66;4992035;28;20180;-40
2023/09/10 03:48:57;;;;;;;108.20;70.20;;;;;;;16.90;100.00;101624.13;4982446;28;20232;-41
2023/09/10 03:51:23;;;;;;;97.47;67.10;;;;;;;16.91;100.00;101622.34;5003205;28;20205;-41
2023/09/10 03:53:49;;;;;;;89.13;64.70;;;;;;;16.95;100.00;101630.22;4988727;28;20224;-42
2023/09/10 03:56:14;;;;;;;105.10;69.68;;;;;;;16.92;100.00;101624.94;5004741;28;20187;-42
2023/09/10 03:58:40;;;;;;;104.50;70.07;;;;;;;17.01;100.00;101627.19;4992338;28;20181;-41
2023/09/10 04:01:05;;;;;;;124.90;80.18;;;;;;;16.86;100.00;101628.84;4979255;28;20243;-38
2023/09/10 04:03:31;;;;;;;105.45;69.20;;;;;;;16.94;100.00;101616.75;4990990;28;20168;-41
2023/09/10 04:05:56;;;;;;;124.07;75.25;;;;;;;16.84;100.00;101621.78;4985835;28;20185;-39
2023/09/10 04:08:22;;;;;;;118.68;76.53;;;;;;;16.77;100.00;101607.66;4999572;28;20209;-41
2023/09/10 04:10:47;;;;;;;121.57;76.85;;;;;;;16.64;100.00;101622.78;5005346;28;20197;-41
2023/09/10 04:13:13;;;;;;;110.57;73.10;;;;;;;16.72;100.00;101625.94;4991208;28;20208;-41
2023/09/10 04:15:38;;;;;;;121.25;74.15;;;;;;;16.67;100.00;101622.59;5000964;28;20772;-41
2023/09/10 04:18:05;;;;;;;125.78;78.65;;;;;;;16.51;100.00;101627.94;5006164;28;20192;-40
2023/09/10 04:20:31;;;;;;;131.13;78.55;;;;;;;16.43;100.00;101624.72;5000891;28;20188;-42
2023/09/10 04:22:56;;;;;;;121.53;74.57;;;;;;;16.55;100.00;101625.91;4979529;28;20578;-43
2023/09/10 04:25:22;;;;;;;132.30;81.07;;;;;;;16.52;100.00;101620.69;4968662;28;20176;-40
2023/09/10 04:27:48;;;;;;;138.43;78.47;;;;;;;16.53;100.00;101623.31;4986178;28;20187;-41
2023/09/10 04:30:14;;;;;;;125.80;77.00;;;;;;;16.55;100.00;101621.41;4987561;28;20208;-43
2023/09/10 04:32:40;;;;;;;128.52;79.45;;;;;;;16.60;100.00;101616.63;4984049;28;20268;-42
2023/09/10 04:35:06;;;;;;;128.77;76.93;;;;;;;16.57;100.00;101615.91;4985158;28;20299;-41
2023/09/10 04:37:32;;;;;;;116.55;74.63;;;;;;;16.62;100.00;101612.03;4999830;28;20180;-42
2023/09/10 04:39:58;;;;;;;121.97;76.28;;;;;;;16.61;100.00;101617.50;4989298;28;20185;-41
2023/09/10 04:42:23;;;;;;;115.07;71.43;;;;;;;16.70;100.00;101627.84;5006165;28;20246;-39
2023/09/10 04:44:49;;;;;;;126.75;77.38;;;;;;;16.57;100.00;101630.28;4986752;28;20554;-41
2023/09/10 04:47:15;;;;;;;107.43;69.72;;;;;;;16.64;100.00;101633.59;4988325;28;20256;-42
2023/09/10 04:49:41;;;;;;;106.20;66.82;;;;;;;16.66;100.00;101637.97;4991506;28;20241;-41
2023/09/10 04:52:06;;;;;;;120.53;73.13;;;;;;;16.66;100.00;101640.69;5001259;28;20205;-39
2023/09/10 04:54:32;;;;;;;126.68;75.43;;;;;;;16.62;100.00;101647.19;4991076;28;20242;-39
2023/09/10 04:56:57;;;;;;;122.97;73.57;;;;;;;16.68;100.00;101646.00;4964280;28;20184;-41
2023/09/10 04:59:23;;;;;;;122.13;74.93;;;;;;;16.58;100.00;101652.84;4987930;28;20208;-41
2023/09/10 05:01:49;;;;;;;108.35;68.10;;;;;;;16.66;100.00;101646.09;4999763;28;20209;-41
2023/09/10 05:04:15;;;;;;;116.32;72.18;;;;;;;16.43;100.00;101657.19;4988252;28;20190;-41
2023/09/10 05:06:40;;;;;;;109.70;69.53;;;;;;;16.48;100.00;101657.81;4993894;28;20215;-41
2023/09/10 05:09:08;;;;;;;117.70;71.35;;;;;;;16.54;100.00;101656.66;4982694;28;20526;-42
2023/09/10 05:11:33;;;;;;;112.90;72.40;;;;;;;16.54;100.00;101660.22;4989458;28;20262;-40
2023/09/10 05:13:59;;;;;;;114.60;71.45;;;;;;;16.55;100.00;101650.28;5003941;28;20180;-42
2023/09/10 05:16:25;;;;;;;106.95;65.85;;;;;;;16.66;100.00;101661.41;4998174;28;20267;-42
2023/09/10 05:18:50;;;;;;;106.43;65.72;;;;;;;16.61;100.00;101656.25;4997826;28;20169;-41
2023/09/10 05:21:17;;;;;;;108.88;66.57;;;;;;;16.61;100.00;101653.53;4986569;28;20216;-41
2023/09/10 05:23:43;;;;;;;102.63;65.65;;;;;;;16.65;100.00;101659.69;4994840;28;20227;-42
2023/09/10 05:26:09;;;;;;;109.07;66.80;;;;;;;16.66;100.00;101656.00;4998318;28;20184;-42
2023/09/10 05:28:35;;;;;;;100.28;64.72;;;;;;;16.74;100.00;101655.63;4986442;28;20745;-42
2023/09/10 05:31:04;;;;;;;101.85;64.50;;;;;;;16.63;100.00;101657.06;4983742;28;20197;-44
2023/09/10 05:33:30;;;;;;;92.88;61.33;;;;;;;16.59;100.00;101646.47;4991634;28;20208;-41
2023/09/10 05:35:57;;;;;;;95.95;61.35;;;;;;;16.70;100.00;101660.31;4985150;28;20219;-42
2023/09/10 05:38:24;;;;;;;106.22;64.50;;;;;;;16.57;100.00;101651.06;4980910;28;20173;-40
2023/09/10 05:40:49;;;;;;;100.68;64.22;;;;;;;16.42;100.00;101650.00;4982551;28;20722;-41
2023/09/10 05:43:15;;;;;;;92.63;58.03;;;;;;;16.47;100.00;101646.13;4986733;28;20192;-43
2023/09/10 05:45:40;;;;;;;94.60;61.47;;;;;;;16.48;100.00;101650.56;4997556;28;20188;-41
2023/09/10 05:48:06;;;;;;;92.28;61.75;;;;;;;16.44;100.00;101654.41;4985123;28;20215;-42
2023/09/10 05:50:31;;;;;;;99.32;63.28;;;;;;;16.50;100.00;101653.22;4977257;28;20205;-42
2023/09/10 05:52:59;;;;;;;89.45;59.92;;;;;;;16.57;100.00;101645.66;5005243;23;20724;-49
2023/09/10 05:55:26;;;;;;;99.22;63.90;;;;;;;16.50;100.00;101649.63;5011337;28;20188;-46
2023/09/10 05:57:52;;;;;;;101.22;64.03;;;;;;;16.41;100.00;101661.78;5011212;28;20168;-47
2023/09/10 06:00:19;;;;;;;98.38;61.80;;;;;;;16.59;100.00;101654.56;5011151;28;20573;-49
2023/09/10 06:02:47;;;;;;;99.28;61.08;;;;;;;16.61;100.00;101658.09;5006688;28;20681;-45
2023/09/10 06:05:13;;;;;;;88.38;58.63;;;;;;;16.74;100.00;101659.22;5011124;28;20176;-47
2023/09/10 06:07:39;;;;;;;102.30;62.80;;;;;;;16.58;100.00;101658.25;5010976;28;20168;-48
2023/09/10 06:10:08;;;;;;;95.03;60.92;;;;;;;16.64;100.00;101657.94;5011073;28;20198;-46
2023/09/10 06:12:38;;;;;;;94.18;60.80;;;;;;;16.69;100.00;101664.88;5011012;28;20613;-46
2023/09/10 06:15:06;;;;;;;95.63;61.40;;;;;;;16.69;100.00;101664.00;5011115;28;20172;-45
2023/09/10 06:17:33;;;;;;;94.30;61.55;;;;;;;16.76;100.00;101661.84;5010932;28;20194;-49
2023/09/10 06:19:58;;;;;;;98.03;62.67;;;;;;;16.70;100.00;101671.16;5028850;28;20172;-46
2023/09/10 06:22:24;;;;;;;84.18;56.53;;;;;;;16.82;100.00;101664.28;5029085;28;20183;-46
2023/09/10 06:24:50;;;;;;;87.72;58.97;;;;;;;16.76;100.00;101668.13;5011930;28;20180;-44
2023/09/10 06:27:15;;;;;;;91.60;59.17;;;;;;;16.45;100.00;101671.50;5011375;28;20228;-45
2023/09/10 06:29:41;;;;;;;89.57;57.45;;;;;;;16.55;100.00;101662.00;5010823;28;20188;-47
2023/09/10 06:32:07;;;;;;;87.90;58.78;;;;;;;16.61;100.00;101664.38;5028523;28;20207;-44
2023/09/10 06:34:32;;;;;;;88.00;58.67;;;;;;;16.61;100.00;101675.19;5010786;28;20191;-46
2023/09/10 06:36:58;;;;;;;83.85;56.58;;;;;;;16.70;100.00;101673.84;5009943;28;20182;-48
2023/09/10 06:39:25;;;;;;;85.60;57.38;;;;;;;16.72;100.00;101682.75;5010941;28;20335;-45
2023/09/10 06:41:54;;;;;;;88.90;58.70;;;;;;;16.71;100.00;101685.56;5010607;28;20196;-47
2023/09/10 06:44:19;;;;;;;76.43;53.80;;;;;;;16.82;100.00;101680.53;5028611;28;20197;-46
2023/09/10 06:46:45;;;;;;;83.97;56.85;;;;;;;16.83;100.00;101674.13;5028920;28;20164;-48
2023/09/10 06:49:10;;;;;;;83.68;56.03;;;;;;;16.82;100.00;101672.41;5029737;28;20214;-50
2023/09/10 06:51:36;;;;;;;82.38;57.28;;;;;;;16.85;100.00;101667.69;5032372;28;20220;-47
2023/09/10 06:54:01;;;;;;;78.63;54.65;;;;;;;16.95;100.00;101672.66;5032075;28;20180;-44
2023/09/10 06:56:29;;;;;;;80.50;56.97;;;;;;;16.94;100.00;101663.63;5032410;28;20290;-48
2023/09/10 06:58:54;;;;;;;76.88;53.53;;;;;;;16.99;100.00;101666.09;5032213;28;20164;-45
2023/09/10 07:01:21;;;;;;;77.05;53.90;;;;;;;17.08;100.00;101671.94;5032370;28;20219;-45
2023/09/10 07:03:57;;;;;;;75.18;53.10;;;;;;;16.99;100.00;101666.09;5032189;28;20180;-46
2023/09/10 07:06:23;;;;;;;71.45;50.83;;;;;;;16.94;100.00;101662.75;5031892;28;20579;-46
2023/09/10 07:08:49;;;;;;;77.25;53.22;;;;;;;16.83;100.00;101671.44;5014136;28;20196;-45
2023/09/10 07:11:14;;;;;;;71.75;51.85;;;;;;;16.77;100.00;101667.19;5032496;28;20192;-47
2023/09/10 07:13:40;;;;;;;75.93;54.17;;;;;;;16.76;100.00;101680.78;5028152;28;20207;-51
2023/09/10 07:16:05;;;;;;;72.88;52.00;;;;;;;17.00;100.00;101676.84;5032064;28;20186;-45
2023/09/10 07:18:33;;;;;;;74.45;52.42;;;;;;;16.83;100.00;101679.56;5031734;28;20215;-46
2023/09/10 07:21:02;;;;;;;71.22;50.25;;;;;;;16.78;100.00;101681.59;5031304;28;20200;-49
2023/09/10 07:23:28;;;;;;;63.72;44.95;;;;;;;17.12;100.00;101690.72;5031692;28;20175;-45
2023/09/10 07:25:55;;;;;;;73.10;50.15;;;;;;;17.18;100.00;101680.44;5031864;28;20465;-46
2023/09/10 07:28:20;;;;;;;63.88;47.08;;;;;;;17.27;100.00;101687.19;5031658;28;20196;-44
2023/09/10 07:30:46;;;;;;;65.00;47.78;;;;;;;17.12;100.00;101693.41;5031582;28;20214;-45
2023/09/10 07:33:11;;;;;;;66.18;49.70;;;;;;;17.18;100.00;101688.56;5031423;28;20255;-44
2023/09/10 07:35:37;;;;;;;62.70;47.03;;;;;;;17.34;100.00;101688.66;5031485;28;20248;-45
2023/09/10 07:38:02;;;;;;;66.75;49.53;;;;;;;17.49;100.00;101687.84;5031258;28;20231;-46
2023/09/10 07:40:28;;;;;;;62.95;44.75;;;;;;;17.39;100.00;101696.53;5031323;28;20253;-46
2023/09/10 07:42:54;;;;;;;64.68;47.22;;;;;;;17.29;100.00;101686.19;5031250;28;20258;-46
2023/09/10 07:45:19;;;;;;;60.38;45.30;;;;;;;17.52;100.00;101694.06;5031436;28;20182;-45
2023/09/10 07:47:45;;;;;;;65.20;48.08;;;;;;;17.45;100.00;101696.22;5031343;28;20184;-47
2023/09/10 07:50:10;;;;;;;59.47;45.50;;;;;;;17.49;100.00;101697.78;5031038;28;20255;-50
2023/09/10 07:52:36;;;;;;;62.22;45.35;;;;;;;17.40;100.00;101707.25;5031014;28;20888;-45
2023/09/10 07:55:01;;;;;;;62.17;45.35;;;;;;;17.22;100.00;101700.13;5031432;28;20164;-47
2023/09/10 07:57:27;;;;;;;56.97;42.20;;;;;;;17.34;100.00;101696.78;5030914;28;20183;-48
2023/09/10 07:59:52;;;;;;;56.00;41.63;;;;;;;17.42;100.00;101707.19;5031107;28;20168;-44
2023/09/10 08:02:18;;;;;;;59.95;43.95;;;;;;;17.03;100.00;101702.88;5030438;28;20172;-47
2023/09/10 08:04:44;;;;;;;60.33;44.30;;;;;;;17.19;100.00;101717.41;5031282;28;20224;-51
2023/09/10 08:07:10;;;;;;;52.88;38.05;;;;;;;17.57;100.00;101708.22;5013025;28;20184;-46
2023/09/10 08:09:37;;;;;;;57.60;42.47;;;;;;;17.44;100.00;101716.13;5030818;28;20192;-49
2023/09/10 08:12:03;;;;;;;54.50;40.15;;;;;;;17.61;100.00;101704.38;5031012;28;20639;-44
2023/09/10 08:14:29;;;;;;;61.60;42.17;;;;;;;17.47;100.00;101710.53;5030886;28;20321;-45
2023/09/10 08:16:55;;;;;;;57.05;41.17;;;;;;;17.32;100.00;101716.75;5030631;28;20238;-47
2023/09/10 08:19:20;;;;;;;62.63;41.85;;;;;;;17.38;100.00;101706.50;5030668;28;20636;-50
2023/09/10 08:21:46;;;;;;;60.58;42.05;;;;;;;17.44;100.00;101722.41;5030597;28;20286;-44
2023/09/10 08:24:11;;;;;;;52.28;37.67;;;;;;;17.57;100.00;101721.75;5030336;28;20295;-46
2023/09/10 08:26:37;;;;;;;57.70;39.05;;;;;;;17.56;100.00;101714.56;5030540;28;20223;-43
2023/09/10 08:29:02;;;;;;;56.40;38.55;;;;;;;17.62;100.00;101717.88;5030337;28;20270;-46
2023/09/10 08:31:28;;;;;;;49.90;36.08;;;;;;;17.69;100.00;101716.56;5030305;28;20692;-45
2023/09/10 08:33:53;;;;;;;48.33;35.40;;;;;;;17.54;100.00;101716.53;5030449;28;20161;-47
2023/09/10 08:36:19;;;;;;;51.08;34.28;;;;;;;17.47;100.00;101721.34;5030225;28;20175;-45
2023/09/10 08:38:44;;;;;;;52.63;34.63;;;;;;;17.60;100.00;101730.63;5030250;28;20194;-45
2023/09/10 08:41:28;;;;;;;48.92;34.95;;;;;;;17.52;100.00;101729.28;5030393;28;20230;-46
2023/09/10 08:43:56;;;;;;;49.80;32.90;;;;;;;17.81;100.00;101725.84;5030267;28;20164;-45
2023/09/10 08:46:29;;;;;;;47.67;33.92;;;;;;;17.77;100.00;101715.28;5012221;28;20238;-45
2023/09/10 08:48:56;;;;;;;46.80;32.22;;;;;;;17.75;100.00;101714.47;5012051;28;20222;-50
2023/09/10 08:51:22;;;;;;;47.60;31.90;;;;;;;17.87;100.00;101713.84;5030092;28;20623;-45
2023/09/10 08:53:48;;;;;;;47.95;33.08;;;;;;;17.71;100.00;101713.78;5012170;28;20187;-46
2023/09/10 08:56:14;;;;;;;46.35;32.80;;;;;;;17.65;100.00;101724.94;5012268;28;20183;-46
2023/09/10 08:58:42;;;;;;;54.60;33.88;;;;;;;17.56;100.00;101714.56;5030343;28;20254;-45
2023/09/10 09:01:11;;;;;;;49.25;32.83;;;;;;;17.44;100.00;101716.97;5029820;28;20188;-44
2023/09/10 09:03:37;;;;;;;48.65;34.25;;;;;;;17.52;100.00;101722.00;5029752;28;20180;-44
2023/09/10 09:06:04;;;;;;;49.20;33.78;;;;;;;17.47;100.00;101729.50;5030126;28;20176;-45
2023/09/10 09:08:32;;;;;;;49.72;33.45;;;;;;;17.36;100.00;101729.19;5029722;28;20227;-44
2023/09/10 09:11:06;;;;;;;47.08;32.25;;;;;;;17.36;100.00;101729.19;5029591;28;20215;-45
2023/09/10 09:13:38;;;;;;;49.10;32.83;;;;;;;17.55;100.00;101732.69;5011561;28;20206;-45
2023/09/10 09:16:05;;;;;;;50.00;32.75;;;;;;;17.55;100.00;101735.38;5011794;28;20262;-46
2023/09/10 09:18:33;;;;;;;48.63;32.97;;;;;;;17.48;100.00;101731.25;5029491;28;20167;-43
2023/09/10 09:21:03;;;;;;;45.72;32.58;;;;;;;17.47;100.00;101735.81;5029398;28;20196;-49
2023/09/10 09:23:32;;;;;;;48.95;34.67;;;;;;;17.66;100.00;101737.53;5029721;28;20179;-45
2023/09/10 09:25:57;;;;;;;47.20;34.58;;;;;;;17.47;100.00;101721.34;5029549;28;20168;-50
2023/09/10 09:28:25;;;;;;;56.97;37.25;;;;;;;17.59;100.00;101730.69;5011778;28;20753;-45
2023/09/10 09:30:52;;;;;;;49.00;33.85;;;;;;;17.90;100.00;101727.22;5029395;28;20210;-46
2023/09/10 09:33:17;;;;;;;44.53;31.27;;;;;;;18.25;100.00;101719.84;5029174;28;20164;-43
2023/09/10 09:35:46;;;;;;;53.00;36.50;;;;;;;18.17;100.00;101729.38;5029438;28;20168;-45
2023/09/10 09:38:13;;;;;;;50.22;34.60;;;;;;;18.41;100.00;101724.41;5029522;28;20595;-45
2023/09/10 09:40:39;;;;;;;46.15;33.15;;;;;;;18.48;100.00;101723.97;5029384;28;20180;-45
2023/09/10 09:43:09;;;;;;;47.72;33.35;;;;;;;18.45;100.00;101723.25;5029283;28;20707;-46
2023/09/10 09:45:36;;;;;;;42.83;31.63;;;;;;;18.45;100.00;101726.84;5029175;28;20597;-47
2023/09/10 09:48:04;;;;;;;45.75;33.45;;;;;;;18.49;100.00;101723.00;5028783;28;20522;-46
2023/09/10 09:50:30;;;;;;;45.97;33.50;;;;;;;18.51;100.00;101720.19;5029132;28;20188;-45
2023/09/10 09:52:56;;;;;;;41.88;32.85;;;;;;;18.79;100.00;101714.09;5028890;28;20242;-46
2023/09/10 09:55:22;;;;;;;37.75;30.50;;;;;;;19.20;100.00;101710.75;5029049;28;20167;-48
2023/09/10 09:57:49;;;;;;;40.15;30.13;;;;;;;19.17;100.00;101708.19;5029011;28;20178;-45
2023/09/10 10:00:15;;;;;;;40.45;32.20;;;;;;;19.12;100.00;101713.91;5028775;28;20215;-45
2023/09/10 10:02:41;;;;;;;40.78;33.05;;;;;;;18.99;100.00;101698.44;5028899;28;20603;-45
2023/09/10 10:05:08;;;;;;;41.05;31.60;;;;;;;19.09;100.00;101694.22;5029314;28;20195;-45
2023/09/10 10:07:37;;;;;;;40.00;32.20;;;;;;;19.12;100.00;101694.91;5028725;28;20308;-46
2023/09/10 10:10:07;;;;;;;39.00;32.55;;;;;;;19.26;100.00;101698.63;5028938;28;20226;-49
2023/09/10 10:12:32;;;;;;;35.58;28.92;;;;;;;19.52;100.00;101697.00;5029069;28;20178;-46
2023/09/10 10:14:59;;;;;;;43.40;33.70;;;;;;;18.88;100.00;101699.97;5028825;28;20176;-45
2023/09/10 10:17:29;;;;;;;41.38;33.28;;;;;;;18.82;100.00;101704.88;5028536;28;20274;-50
2023/09/10 10:19:56;;;;;;;43.58;33.15;;;;;;;18.80;100.00;101702.25;5028738;28;20210;-45
2023/09/10 10:22:22;;;;;;;44.38;34.45;;;;;;;18.68;100.00;101705.66;5028898;28;20705;-50
2023/09/10 10:24:48;;;;;;;41.22;33.60;;;;;;;18.76;100.00;101705.19;5031225;28;20520;-50
2023/09/10 10:27:14;;;;;;;39.72;32.33;;;;;;;18.90;100.00;101700.75;5032952;28;20637;-48
2023/09/10 10:29:40;;;;;;;40.00;33.05;;;;;;;18.97;100.00;101706.69;5032610;28;20203;-49
2023/09/10 10:32:24;;;;;;;41.95;32.65;;;;;;;19.07;100.00;101707.88;5032758;28;20195;-45
2023/09/10 10:34:56;;;;;;;39.78;31.13;;;;;;;19.22;100.00;101703.38;5032687;28;20622;-46
2023/09/10 10:37:40;;;;;;;40.67;33.20;;;;;;;18.89;100.00;101708.97;5032499;28;20170;-43
2023/09/10 10:40:21;;;;;;;39.88;32.22;;;;;;;19.16;100.00;101701.03;5014507;28;20527;-45
2023/09/10 10:42:57;;;;;;;37.22;30.92;;;;;;;19.26;100.00;101698.63;5032293;28;20626;-45
2023/09/10 10:45:24;;;;;;;37.83;32.03;;;;;;;19.26;100.00;101699.50;5015316;28;20160;-43
2023/09/10 10:47:50;;;;;;;40.00;33.72;;;;;;;19.31;100.00;101693.78;5032208;28;20168;-46
2023/09/10 10:50:24;;;;;;;37.88;31.80;;;;;;;19.28;100.00;101689.41;5032022;28;20260;-47
2023/09/10 10:52:59;;;;;;;35.75;31.10;;;;;;;19.48;100.00;101690.91;5032166;28;20626;-44
2023/09/10 10:55:26;;;;;;;36.58;31.38;;;;;;;19.60;100.00;101691.97;5032355;28;20599;-43
2023/09/10 10:57:55;;;;;;;36.45;31.05;;;;;;;19.78;100.00;101684.53;5032095;28;20665;-48